createdAt,value
2018-02-19T00:01:11.683Z,2.90
2018-02-19T00:03:44.721Z,2.90
2018-02-19T00:06:14.719Z,2.90
2018-02-19T00:08:46.929Z,2.90
2018-02-19T00:11:16.210Z,2.90
2018-02-19T00:13:51.072Z,2.90
2018-02-19T00:16:20.636Z,2.90
2018-02-19T00:18:51.511Z,2.80
2018-02-19T00:21:20.608Z,2.70
2018-02-19T00:23:56.875Z,2.80
2018-02-19T00:26:25.930Z,2.70
2018-02-19T00:28:55.482Z,2.70
2018-02-19T00:31:25.419Z,2.80
2018-02-19T00:33:58.258Z,2.90
2018-02-19T00:36:27.342Z,2.80
2018-02-19T00:38:59.930Z,2.80
2018-02-19T00:41:28.917Z,2.80
2018-02-19T00:44:02.740Z,2.70
2018-02-19T00:46:32.100Z,2.70
2018-02-19T00:49:05.523Z,2.60
2018-02-19T00:51:34.588Z,2.60
2018-02-19T00:54:07.251Z,2.60
2018-02-19T00:56:36.275Z,2.60
2018-02-19T00:59:08.539Z,2.60
2018-02-19T01:01:37.995Z,2.60
2018-02-19T01:04:13.008Z,2.60
2018-02-19T01:06:42.042Z,2.60
2018-02-19T01:09:14.607Z,2.50
2018-02-19T01:11:44.409Z,2.50
2018-02-19T01:14:16.316Z,2.50
2018-02-19T01:16:45.442Z,2.50
2018-02-19T01:19:17.897Z,2.60
2018-02-19T01:21:47.289Z,2.50
2018-02-19T01:24:20.260Z,2.50
2018-02-19T01:26:49.985Z,2.50
2018-02-19T01:29:22.144Z,2.50
2018-02-19T01:31:51.127Z,2.50
2018-02-19T01:34:23.671Z,2.50
2018-02-19T01:36:55.611Z,2.50
2018-02-19T01:39:25.456Z,2.60
2018-02-19T01:41:55.232Z,2.50
2018-02-19T01:44:27.721Z,2.50
2018-02-19T01:46:56.631Z,2.60
2018-02-19T01:49:29.634Z,2.60
2018-02-19T01:51:58.548Z,2.50
2018-02-19T01:54:31.548Z,2.50
2018-02-19T01:57:00.496Z,2.50
2018-02-19T01:59:33.375Z,2.40
2018-02-19T02:02:02.705Z,2.50
2018-02-19T02:04:35.359Z,2.50
2018-02-19T02:07:05.137Z,2.40
2018-02-19T02:09:37.575Z,2.40
2018-02-19T02:12:08.045Z,2.50
2018-02-19T02:14:40.018Z,2.50
2018-02-19T02:17:11.998Z,2.50
2018-02-19T02:19:42.208Z,2.40
2018-02-19T02:22:11.165Z,2.40
2018-02-19T02:24:44.172Z,2.40
2018-02-19T02:27:13.857Z,2.40
2018-02-19T02:29:46.221Z,2.40
2018-02-19T02:32:15.457Z,2.50
2018-02-19T02:34:48.394Z,2.40
2018-02-19T02:37:17.399Z,2.50
2018-02-19T02:39:50.657Z,2.50
2018-02-19T02:42:19.695Z,2.50
2018-02-19T02:44:53.231Z,2.50
2018-02-19T02:47:22.488Z,2.50
2018-02-19T02:49:55.194Z,2.50
2018-02-19T02:52:24.133Z,2.60
2018-02-19T02:54:57.783Z,2.50
2018-02-19T02:57:27.482Z,2.50
2018-02-19T02:59:59.988Z,2.50
2018-02-19T03:02:29.714Z,2.50
2018-02-19T03:05:02.415Z,2.60
2018-02-19T03:07:31.421Z,2.50
2018-02-19T03:10:04.501Z,2.50
2018-02-19T03:12:33.563Z,2.50
2018-02-19T03:15:06.579Z,2.50
2018-02-19T03:17:35.912Z,2.50
2018-02-19T03:20:09.550Z,2.50
2018-02-19T03:22:38.626Z,2.50
2018-02-19T03:25:13.611Z,2.50
2018-02-19T03:27:42.605Z,2.50
2018-02-19T03:30:13.806Z,2.50
2018-02-19T03:32:43.851Z,2.40
2018-02-19T03:35:19.909Z,2.50
2018-02-19T03:37:48.856Z,2.50
2018-02-19T03:40:18.540Z,2.50
2018-02-19T03:42:48.259Z,2.50
2018-02-19T03:45:21.030Z,2.60
2018-02-19T03:47:50.759Z,2.60
2018-02-19T03:50:23.092Z,2.60
2018-02-19T03:52:52.362Z,2.50
2018-02-19T03:55:24.556Z,2.50
2018-02-19T03:57:53.540Z,2.60
2018-02-19T04:00:25.527Z,2.50
2018-02-19T04:02:55.304Z,2.50
2018-02-19T04:05:28.570Z,2.50
2018-02-19T04:07:57.811Z,2.60
2018-02-19T04:10:29.513Z,2.60
2018-02-19T04:12:58.441Z,2.60
2018-02-19T04:15:31.702Z,2.70
2018-02-19T04:18:00.698Z,2.70
2018-02-19T04:20:33.395Z,2.60
2018-02-19T04:23:03.102Z,2.70
2018-02-19T04:25:35.404Z,2.70
2018-02-19T04:28:05.135Z,2.70
2018-02-19T04:30:37.825Z,2.70
2018-02-19T04:33:07.073Z,2.70
2018-02-19T04:35:38.723Z,2.80
2018-02-19T04:38:07.695Z,2.80
2018-02-19T04:40:41.750Z,2.70
2018-02-19T04:43:10.824Z,2.80
2018-02-19T04:45:43.998Z,2.70
2018-02-19T04:48:13.281Z,2.80
2018-02-19T04:50:45.808Z,2.80
2018-02-19T04:53:14.803Z,2.80
2018-02-19T04:55:47.925Z,2.90
2018-02-19T04:58:17.012Z,3.00
2018-02-19T05:00:50.039Z,3.00
2018-02-19T05:03:19.034Z,3.00
2018-02-19T05:05:52.319Z,3.00
2018-02-19T05:08:21.639Z,3.00
2018-02-19T05:10:54.456Z,3.00
2018-02-19T05:13:24.148Z,3.00
2018-02-19T05:15:57.153Z,3.00
2018-02-19T05:18:26.894Z,3.00
2018-02-19T05:20:58.016Z,3.00
2018-02-19T05:23:35.574Z,3.10
2018-02-19T05:26:04.516Z,3.00
2018-02-19T05:28:33.492Z,3.00
2018-02-19T05:31:04.029Z,3.10
2018-02-19T05:33:36.143Z,3.10
2018-02-19T05:36:07.015Z,3.00
2018-02-19T05:38:35.981Z,3.00
2018-02-19T05:41:08.920Z,3.00
2018-02-19T05:43:37.905Z,3.00
2018-02-19T05:46:11.920Z,3.10
2018-02-19T05:48:41.383Z,3.10
2018-02-19T05:51:14.565Z,3.20
2018-02-19T05:53:44.633Z,3.10
2018-02-19T05:56:16.488Z,3.20
2018-02-19T05:58:45.445Z,3.10
2018-02-19T06:01:17.798Z,3.20
2018-02-19T06:03:47.110Z,3.20
2018-02-19T06:06:20.396Z,3.20
2018-02-19T06:08:50.155Z,3.20
2018-02-19T06:11:22.115Z,3.20
2018-02-19T06:13:51.121Z,3.20
2018-02-19T06:16:24.217Z,3.20
2018-02-19T06:18:53.533Z,3.10
2018-02-19T06:21:26.147Z,3.20
2018-02-19T06:23:55.140Z,3.20
2018-02-19T06:26:28.507Z,3.20
2018-02-19T06:29:04.679Z,3.20
2018-02-19T06:31:34.207Z,3.20
2018-02-19T06:34:03.325Z,3.30
2018-02-19T06:36:32.401Z,3.30
2018-02-19T06:39:03.079Z,3.30
2018-02-19T06:41:34.798Z,3.30
2018-02-19T06:44:03.808Z,3.30
2018-02-19T06:46:36.882Z,3.30
2018-02-19T06:49:05.876Z,3.40
2018-02-19T06:51:40.430Z,3.40
2018-02-19T06:54:09.391Z,3.40
2018-02-19T06:56:41.956Z,3.40
2018-02-19T06:59:10.967Z,3.40
2018-02-19T07:01:44.143Z,3.40
2018-02-19T07:04:13.503Z,3.40
2018-02-19T07:06:46.625Z,3.40
2018-02-19T07:09:15.625Z,3.40
2018-02-19T07:11:48.484Z,3.40
2018-02-19T07:14:17.443Z,3.40
2018-02-19T07:16:52.015Z,3.40
2018-02-19T07:19:21.532Z,3.50
2018-02-19T07:21:54.029Z,3.50
2018-02-19T07:24:23.093Z,3.50
2018-02-19T07:26:56.941Z,3.50
2018-02-19T07:29:25.962Z,3.60
2018-02-19T07:31:59.655Z,3.60
2018-02-19T07:34:30.332Z,3.60
2018-02-19T07:37:00.320Z,3.60
2018-02-19T07:39:29.366Z,3.60
2018-02-19T07:42:04.161Z,3.70
2018-02-19T07:44:33.219Z,3.70
2018-02-19T07:47:06.324Z,3.70
2018-02-19T07:49:35.615Z,3.70
2018-02-19T07:52:09.091Z,3.70
2018-02-19T07:54:38.204Z,3.70
2018-02-19T07:57:12.350Z,3.80
2018-02-19T07:59:41.452Z,3.80
2018-02-19T08:02:15.468Z,3.90
2018-02-19T08:04:45.628Z,3.90
2018-02-19T08:07:16.604Z,3.90
2018-02-19T08:09:45.648Z,3.90
2018-02-19T08:12:18.366Z,4.00
2018-02-19T08:14:47.380Z,3.90
2018-02-19T08:17:21.470Z,4.00
2018-02-19T08:19:51.049Z,4.10
2018-02-19T08:22:22.431Z,4.10
2018-02-19T08:24:51.573Z,4.10
2018-02-19T08:27:24.813Z,4.10
2018-02-19T08:29:53.956Z,4.20
2018-02-19T08:32:26.496Z,4.10
2018-02-19T08:34:55.847Z,4.10
2018-02-19T08:37:28.289Z,3.80
2018-02-19T08:39:57.482Z,3.90
2018-02-19T08:42:30.352Z,3.90
2018-02-19T08:44:59.621Z,3.90
2018-02-19T08:47:33.877Z,4.00
2018-02-19T08:50:04.332Z,4.10
2018-02-19T08:52:34.417Z,4.20
2018-02-19T08:55:03.539Z,4.30
2018-02-19T08:57:36.968Z,4.30
2018-02-19T09:00:06.196Z,4.40
2018-02-19T09:02:39.584Z,4.40
2018-02-19T09:05:08.944Z,4.40
2018-02-19T09:07:41.197Z,4.30
2018-02-19T09:10:10.208Z,4.20
2018-02-19T09:12:44.237Z,4.50
2018-02-19T09:15:14.653Z,4.60
2018-02-19T09:17:45.830Z,4.50
2018-02-19T09:20:15.284Z,4.60
2018-02-19T09:22:47.739Z,4.80
2018-02-19T09:25:16.792Z,4.90
2018-02-19T09:27:50.127Z,5.00
2018-02-19T09:30:20.117Z,5.00
2018-02-19T09:32:52.827Z,5.20
2018-02-19T09:35:22.212Z,5.10
2018-02-19T09:37:55.012Z,5.10
2018-02-19T09:40:24.167Z,5.20
2018-02-19T09:42:58.631Z,5.30
2018-02-19T09:45:27.771Z,5.30
2018-02-19T09:48:01.404Z,5.30
2018-02-19T09:50:31.524Z,5.30
2018-02-19T17:41:49.825Z,6.20
2018-02-19T17:46:50.207Z,6.10
2018-02-19T17:49:23.743Z,6.10
2018-02-19T17:52:00.277Z,6.20
2018-02-19T17:54:42.752Z,6.20
2018-02-19T17:57:16.660Z,6.20
2018-02-19T17:59:50.668Z,6.10
2018-02-19T18:02:25.010Z,6.10
2018-02-19T18:04:59.001Z,6.10
2018-02-19T18:07:42.528Z,6.00
2018-02-19T18:10:17.408Z,6.00
2018-02-19T18:12:54.270Z,6.00
2018-02-19T18:15:31.242Z,6.00
2018-02-19T18:18:05.439Z,6.00
2018-02-19T18:23:20.420Z,5.90
2018-02-19T18:25:56.370Z,6.00
2018-02-19T18:28:32.335Z,5.90
2018-02-19T18:31:07.750Z,5.90
2018-02-19T18:33:43.211Z,5.80
2018-02-19T18:36:19.398Z,5.90
2018-02-19T18:38:59.545Z,5.90
2018-02-19T18:41:33.068Z,5.90
2018-02-19T18:44:07.309Z,5.80
2018-02-19T18:46:41.984Z,5.90
2018-02-19T18:49:18.480Z,5.90
2018-02-19T18:51:52.733Z,5.80
2018-02-19T18:54:29.916Z,5.80
2018-02-19T18:57:12.607Z,5.80
2018-02-19T18:59:47.958Z,5.80
2018-02-19T19:02:22.463Z,5.80
2018-02-19T19:04:59.827Z,5.80
2018-02-19T19:07:40.836Z,5.90
2018-02-19T19:10:55.547Z,5.80
2018-02-19T19:13:32.423Z,5.80
2018-02-19T19:16:16.057Z,5.80
2018-02-19T19:18:54.687Z,5.80
2018-02-19T19:21:29.848Z,5.80
2018-02-19T19:24:04.284Z,5.80
2018-02-19T19:26:39.028Z,5.70
2018-02-19T19:29:26.169Z,5.80
2018-02-19T19:32:03.932Z,5.70
2018-02-19T19:34:40.033Z,5.70
2018-02-19T19:37:14.349Z,5.70
2018-02-19T19:39:49.821Z,5.60
2018-02-19T19:44:51.680Z,5.60
2018-02-19T19:47:34.820Z,5.60
2018-02-19T19:50:10.521Z,5.60
2018-02-19T19:52:44.712Z,5.60
2018-02-19T19:55:18.048Z,5.50
2018-02-19T19:57:51.441Z,5.50
2018-02-19T20:00:34.575Z,5.40
2018-02-19T20:03:08.184Z,5.40
2018-02-19T20:05:47.410Z,5.50
2018-02-19T20:08:23.277Z,5.40
2018-02-19T20:10:58.833Z,5.40
2018-02-19T20:13:39.499Z,5.40
2018-02-19T20:16:12.798Z,5.30
2018-02-19T20:18:49.092Z,5.40
2018-02-19T20:21:22.386Z,5.30
2018-02-19T20:23:55.333Z,5.30
2018-02-19T20:26:30.400Z,5.30
2018-02-19T20:29:06.890Z,5.30
2018-02-19T20:31:49.940Z,5.30
2018-02-19T20:34:24.736Z,5.30
2018-02-19T20:36:59.620Z,5.30
2018-02-19T20:39:34.992Z,5.30
2018-02-19T20:42:11.154Z,5.30
2018-02-19T20:47:28.613Z,5.20
2018-02-19T20:50:03.705Z,5.30
2018-02-19T20:52:38.220Z,5.20
2018-02-19T20:55:11.445Z,5.20
2018-02-19T20:57:47.602Z,5.30
2018-02-19T21:00:21.910Z,5.30
2018-02-19T21:03:02.225Z,5.30
2018-02-19T21:05:35.838Z,5.30
2018-02-19T21:08:10.534Z,5.30
2018-02-19T21:10:43.599Z,5.30
2018-02-19T21:13:19.606Z,5.30
2018-02-19T21:15:53.521Z,5.40
2018-02-19T21:18:26.460Z,5.30
2018-02-19T21:21:02.055Z,5.30
2018-02-19T21:23:35.338Z,5.30
2018-02-19T21:26:13.848Z,5.30
2018-02-19T21:28:47.210Z,5.40
2018-02-19T21:31:22.002Z,5.40
2018-02-19T21:33:54.866Z,5.40
2018-02-19T21:36:28.688Z,5.40
2018-02-19T21:39:01.142Z,5.30
2018-02-19T21:41:33.693Z,5.30
2018-02-19T21:44:05.296Z,5.30
2018-02-19T21:46:36.981Z,5.30
2018-02-19T21:49:09.355Z,5.30
2018-02-19T21:51:41.551Z,5.20
2018-02-19T21:54:12.834Z,5.20
2018-02-19T21:56:42.494Z,5.20
2018-02-19T21:59:13.206Z,5.20
2018-02-19T22:01:43.895Z,5.20
2018-02-19T22:04:13.113Z,5.20
2018-02-19T22:06:43.631Z,5.20
2018-02-19T22:09:13.665Z,5.20
2018-02-19T22:11:45.698Z,5.20
2018-02-19T22:14:17.436Z,5.20
2018-02-19T22:16:49.402Z,5.20
2018-02-19T22:19:22.013Z,5.20
2018-02-19T22:21:56.008Z,5.00
2018-02-19T22:24:27.059Z,5.00
2018-02-19T22:26:58.146Z,5.00
2018-02-19T22:29:29.976Z,5.00
2018-02-19T22:32:01.352Z,5.00
2018-02-19T22:34:31.902Z,5.00
2018-02-19T22:37:01.742Z,5.00
2018-02-19T22:39:31.048Z,5.00
2018-02-19T22:42:00.758Z,5.00
2018-02-19T22:44:30.500Z,5.00
2018-02-19T22:47:00.329Z,5.00
2018-02-19T22:49:30.786Z,5.00
2018-02-19T22:52:00.066Z,5.00
2018-02-19T22:54:29.096Z,5.00
2018-02-19T22:56:58.467Z,5.00
2018-02-19T22:59:28.171Z,5.00
2018-02-19T23:01:57.250Z,5.00
2018-02-19T23:04:26.648Z,5.00
2018-02-19T23:07:08.751Z,5.00
2018-02-19T23:09:38.292Z,5.00
2018-02-19T23:12:07.362Z,5.00
2018-02-19T23:14:36.359Z,4.90
2018-02-19T23:17:05.769Z,4.90
2018-02-19T23:19:35.111Z,4.90
2018-02-19T23:22:06.800Z,4.90
2018-02-19T23:24:36.076Z,4.90
2018-02-19T23:27:08.952Z,4.90
2018-02-19T23:29:37.965Z,4.90
2018-02-19T23:32:13.125Z,4.90
2018-02-19T23:34:42.238Z,4.90
2018-02-19T23:37:13.825Z,4.90
2018-02-19T23:39:44.052Z,5.00
2018-02-19T23:42:16.916Z,4.90
2018-02-19T23:44:45.888Z,4.90
2018-02-19T23:47:18.301Z,4.90
2018-02-19T23:49:48.215Z,4.90
2018-02-19T23:52:20.556Z,4.90
2018-02-19T23:54:50.521Z,4.90
2018-02-19T23:57:22.764Z,4.90
2018-02-19T23:59:52.497Z,4.90
